METAR Data
IDs: Format: Raw Decoded Include TAF

Data at: 1354 UTC 10 Aug 2022

KF70 101335Z AUTO 00000KT 10SM CLR 21/09 A3003 RMK AO2
KF70 101315Z AUTO 00000KT 10SM CLR 21/08 A3002 RMK AO2
KF70 101255Z AUTO 00000KT 10SM CLR 21/08 A3002 RMK AO2
KF70 101235Z AUTO 00000KT 10SM CLR 21/09 A3001 RMK AO2
KF70 101215Z AUTO 00000KT 10SM CLR 22/08 A3000 RMK AO2
KF70 101155Z AUTO 00000KT 10SM CLR 21/08 A3000 RMK AO2
KF70 101135Z AUTO 00000KT 10SM CLR 22/09 A3000 RMK AO2
KF70 101115Z AUTO 00000KT 10SM CLR 21/10 A3001 RMK AO2
KF70 101055Z AUTO 00000KT 10SM CLR 23/09 A3001 RMK AO2
KF70 101035Z AUTO 00000KT 10SM CLR 22/09 A3001 RMK AO2
KF70 101015Z AUTO 00000KT 10SM CLR 23/08 A3001 RMK AO2
KF70 100955Z AUTO 00000KT 10SM CLR 23/08 A3001 RMK AO2
KF70 100935Z AUTO 00000KT 10SM CLR 23/08 A3001 RMK AO2
KF70 100915Z AUTO 00000KT 10SM CLR 23/07 A3001 RMK AO2
KF70 100855Z AUTO 00000KT 10SM CLR 24/08 A3001 RMK AO2
KF70 100835Z AUTO 00000KT 10SM CLR 24/07 A3001 RMK AO2
KF70 100815Z AUTO 00000KT 10SM CLR 23/06 A3001 RMK AO2
KF70 100755Z AUTO 13005KT 10SM CLR 24/06 A3001 RMK AO2
KF70 100735Z AUTO 00000KT 10SM CLR 24/06 A3002 RMK AO2
KF70 100715Z AUTO 00000KT 10SM CLR 25/07 A3002 RMK AO2
KF70 100655Z AUTO 00000KT 10SM CLR 25/07 A3002 RMK AO2
KF70 100635Z AUTO 00000KT 10SM CLR 25/07 A3002 RMK AO2
KF70 100615Z AUTO 00000KT 10SM CLR 25/07 A3002 RMK AO2
KF70 100555Z AUTO 00000KT 10SM CLR 26/07 A3002 RMK AO2
KF70 100535Z AUTO 13003KT 10SM CLR 26/07 A3002 RMK AO2
KF70 100515Z AUTO 00000KT 10SM CLR 26/08 A3001 RMK AO2
KF70 100455Z AUTO 00000KT 10SM CLR 26/08 A3001 RMK AO2
KF70 100435Z AUTO 20003KT 10SM CLR 27/07 A3000 RMK AO2
KF70 100415Z AUTO 18009KT 10SM CLR 27/04 A2999 RMK AO2
KF70 100355Z AUTO 18006KT 10SM CLR 27/06 A2998 RMK AO2
KF70 100335Z AUTO 21004KT 10SM CLR 27/06 A2998 RMK AO2
KF70 100315Z AUTO 17006KT 10SM CLR 28/07 A2997 RMK AO2
KF70 100255Z AUTO 18008KT 10SM CLR 28/07 A2996 RMK AO2
KF70 100235Z AUTO 18013KT 10SM CLR 29/07 A2996 RMK AO2
KF70 100215Z AUTO 18011KT 10SM CLR 30/06 A2995 RMK AO2
KF70 100155Z AUTO 20009KT 10SM CLR 30/06 A2994 RMK AO2
KF70 100135Z AUTO 21006KT 10SM CLR 31/06 A2994 RMK AO2
KF70 100115Z AUTO 19012KT 10SM CLR 31/07 A2993 RMK AO2
KF70 100055Z AUTO 19009G14KT 10SM CLR 32/08 A2993 RMK AO2
KF70 100035Z AUTO 19011KT 10SM CLR 33/07 A2993 RMK AO2
KF70 100015Z AUTO 19011KT 10SM CLR 34/07 A2993 RMK AO2
KF70 092355Z AUTO 19011G18KT 10SM CLR 34/06 A2993 RMK AO2
KF70 092335Z AUTO 20013G17KT 10SM CLR 33/07 A2993 RMK AO2
KF70 092315Z AUTO 21012G19KT 10SM CLR 34/08 A2993 RMK AO2
KF70 092255Z AUTO 20012G17KT 10SM CLR 34/09 A2993 RMK AO2
KF70 092235Z AUTO 20014G18KT 10SM CLR 35/11 A2992 RMK AO2
KF70 092215Z AUTO 20012G15KT 10SM CLR 35/12 A2993 RMK AO2
KF70 092155Z AUTO 20012G20KT 10SM CLR 35/13 A2993 RMK AO2
KF70 092135Z AUTO 22010G18KT 10SM CLR 35/14 A2993 RMK AO2
KF70 092115Z AUTO 21011G17KT 10SM CLR 35/14 A2994 RMK AO2
KF70 092055Z AUTO 20010G19KT 180V240 10SM CLR 35/13 A2995 RMK AO2
KF70 092035Z AUTO 22012G16KT 10SM CLR 35/13 A2995 RMK AO2
KF70 092015Z AUTO 23008G14KT 10SM CLR 35/13 A2996 RMK AO2
KF70 091955Z AUTO 21007KT 10SM CLR 35/13 A2996 RMK AO2
KF70 091935Z AUTO 20005KT 10SM CLR 35/13 A2996 RMK AO2
KF70 091915Z AUTO 20006KT 150V210 10SM CLR 35/13 A2996 RMK AO2
KF70 091855Z AUTO 24003KT 10SM CLR 34/12 A2997 RMK AO2
KF70 091835Z AUTO 26004KT 10SM CLR 33/11 A2998 RMK AO2
KF70 091815Z AUTO 23005KT 10SM CLR 32/11 A2999 RMK AO2
KF70 091755Z AUTO 24004KT 10SM CLR 32/10 A2999 RMK AO2
KF70 091735Z AUTO 22004KT 10SM CLR 31/10 A3000 RMK AO2
KF70 091715Z AUTO 19004KT 10SM CLR 30/09 A3000 RMK AO2
KF70 091655Z AUTO 00000KT 10SM CLR 29/09 A3000 RMK AO2
KF70 091635Z AUTO 00000KT 10SM CLR 29/09 A3000 RMK AO2
KF70 091615Z AUTO 00000KT 10SM CLR 28/11 A3000 RMK AO2
KF70 091555Z AUTO 00000KT 10SM CLR 27/11 A3000 RMK AO2
KF70 091535Z AUTO 00000KT 10SM CLR 26/11 A3000 RMK AO2
KF70 091515Z AUTO 00000KT 10SM CLR 25/11 A3000 RMK AO2
KF70 091455Z AUTO 00000KT 10SM CLR 25/10 A2999 RMK AO2
KF70 091435Z AUTO 00000KT 10SM CLR 23/09 A2998 RMK AO2
KF70 091415Z AUTO 00000KT 10SM CLR 23/10 A2998 RMK AO2
KF70 091355Z AUTO 00000KT 10SM CLR 23/10 A2998 RMK AO2
KF70 091335Z AUTO 00000KT 10SM CLR 23/10 A2997 RMK AO2
KF70 091315Z AUTO 00000KT 10SM CLR 22/08 A2996 RMK AO2
KF70 091255Z AUTO 00000KT 10SM CLR 22/09 A2996 RMK AO2
KF70 091235Z AUTO 00000KT 10SM CLR 22/09 A2996 RMK AO2
KF70 091215Z AUTO 00000KT 10SM CLR 22/10 A2996 RMK AO2
KF70 091155Z AUTO 00000KT 10SM CLR 23/10 A2996 RMK AO2
KF70 091135Z AUTO 00000KT 10SM CLR 23/09 A2995 RMK AO2
KF70 091115Z AUTO 00000KT 10SM CLR 23/09 A2995 RMK AO2
KF70 091055Z AUTO 00000KT 10SM CLR 23/09 A2995 RMK AO2
KF70 091035Z AUTO 00000KT 10SM CLR 23/09 A2995 RMK AO2
KF70 091015Z AUTO 00000KT 10SM CLR 24/09 A2995 RMK AO2
KF70 090955Z AUTO 00000KT 10SM CLR 23/08 A2995 RMK AO2
KF70 090935Z AUTO 00000KT 10SM CLR 24/08 A2995 RMK AO2
KF70 090915Z AUTO 00000KT 10SM CLR 24/08 A2996 RMK AO2
KF70 090855Z AUTO 00000KT 10SM CLR 25/08 A2996 RMK AO2
KF70 090835Z AUTO 13003KT 10SM CLR 25/07 A2996 RMK AO2
KF70 090815Z AUTO 00000KT 10SM CLR 25/08 A2996 RMK AO2
KF70 090755Z AUTO 00000KT 10SM CLR 26/08 A2997 RMK AO2
KF70 090735Z AUTO 00000KT 10SM CLR 26/08 A2998 RMK AO2
KF70 090715Z AUTO 00000KT 10SM CLR 26/08 A2998 RMK AO2
KF70 090655Z AUTO 18004KT 10SM CLR 26/07 A2999 RMK AO2
KF70 090635Z AUTO 00000KT 10SM CLR 26/07 A2998 RMK AO2
KF70 090615Z AUTO 15003KT 10SM CLR 26/08 A2998 RMK AO2
KF70 090555Z AUTO 00000KT 10SM CLR 26/07 A2999 RMK AO2
KF70 090535Z AUTO 00000KT 10SM CLR 27/06 A2999 RMK AO2
KF70 090515Z AUTO 20003KT 10SM CLR 27/05 A2998 RMK AO2
KF70 090455Z AUTO 20003KT 10SM CLR 27/07 A2997 RMK AO2
KF70 090435Z AUTO 00000KT 10SM CLR 26/07 A2997 RMK AO2
KF70 090415Z AUTO 00000KT 10SM CLR 27/07 A2997 RMK AO2
KF70 090355Z AUTO 22005KT 10SM CLR 27/06 A2996 RMK AO2
KF70 090335Z AUTO 23006KT 10SM CLR 27/07 A2996 RMK AO2
KF70 090315Z AUTO 20007KT 10SM CLR 28/08 A2996 RMK AO2
KF70 090255Z AUTO 20007KT 10SM CLR 28/09 A2995 RMK AO2
KF70 090235Z AUTO 20007KT 10SM CLR 28/10 A2994 RMK AO2
KF70 090215Z AUTO 18014KT 10SM CLR 30/09 A2994 RMK AO2
KF70 090155Z AUTO 18010KT 10SM CLR 31/07 A2993 RMK AO2